Time;durP1;ratioP1;P1;durP2;ratioP2;P2;SDS_P1;SDS_P2;PMS_P1;PMS_P2;Temp;Humidity;BMP_temperature;BMP_pressure;BME280_temperature;BME280_humidity;BME280_pressure;Samples;Min_cycle;Max_cycle;Signal;HPM_P1;HPM_P2
2021/12/16 00:05:13;;;;;;;30.00;24.38;;;5.60;83.70;;;3.47;99.84;97600.94;4970199;28;20413;-65
2021/12/16 00:34:14;;;;;;;33.75;27.00;;;5.60;83.90;;;3.46;99.36;97581.06;4949474;28;20037;-64
2021/12/16 00:36:41;;;;;;;32.83;26.23;;;5.60;83.80;;;3.46;99.01;97586.28;4936809;28;20109;-65
2021/12/16 00:39:13;;;;;;;33.35;26.58;;;5.60;83.70;;;3.47;99.34;97592.31;4947296;29;20047;-65
2021/12/16 00:41:41;;;;;;;35.88;26.55;;;5.60;83.60;;;3.47;98.92;97589.72;4936262;28;20043;-65
2021/12/16 00:49:32;;;;;;;34.03;28.17;;;5.60;83.80;;;3.44;99.02;97584.72;4951990;28;20155;-64
2021/12/16 00:54:46;;;;;;;38.30;28.60;;;5.50;83.60;;;3.43;99.13;97593.47;4952855;28;20038;-64
2021/12/16 00:57:14;;;;;;;35.70;28.58;;;5.60;83.80;;;3.42;98.86;97603.03;4939192;28;20097;-64
2021/12/16 00:59:43;;;;;;;35.63;28.52;;;5.50;83.70;;;3.41;99.49;97601.38;4959099;28;20442;-64
2021/12/16 01:08:05;;;;;;;37.78;27.60;;;5.60;83.90;;;3.42;99.51;97603.03;4956361;28;20108;-65
2021/12/16 01:35:49;;;;;;;41.05;29.42;;;5.60;83.50;;;3.39;98.93;97613.63;4966678;28;20440;-64
2021/12/16 01:51:19;;;;;;;42.67;32.05;;;5.50;83.20;;;3.40;99.16;97599.72;4988902;28;20072;-65
2021/12/16 01:54:16;;;;;;;42.63;30.17;;;5.60;83.40;;;3.40;98.99;97602.31;4987312;28;20025;-66
2021/12/16 01:56:52;;;;;;;42.58;30.77;;;5.60;83.30;;;3.41;98.61;97595.34;4973084;28;20065;-66
2021/12/16 01:59:21;;;;;;;43.47;31.48;;;5.50;83.20;;;3.40;98.78;97593.69;4986574;28;20034;-66
2021/12/16 02:01:47;;;;;;;43.00;31.52;;;5.50;83.40;;;3.37;98.87;97595.53;4971643;28;20038;-66
2021/12/16 02:04:29;;;;;;;43.50;31.83;;;5.50;83.50;;;3.36;98.70;97598.25;4967418;28;20397;-66
2021/12/16 02:09:45;;;;;;;43.80;33.45;;;5.50;83.60;;;3.37;99.06;97592.09;4971536;28;20035;-64
2021/12/16 02:36:28;;;;;;;44.45;31.15;;;5.40;83.70;;;3.32;98.88;97595.03;4987117;28;20096;-66
2021/12/16 02:39:16;;;;;;;44.67;31.13;;;5.40;83.90;;;3.32;99.34;97596.81;4973256;28;20491;-65
2021/12/16 02:41:44;;;;;;;45.30;30.42;;;5.40;83.90;;;3.30;99.02;97593.47;4973373;28;20290;-66
2021/12/16 02:44:20;;;;;;;43.30;32.00;;;5.40;84.00;;;3.32;99.14;97583.81;4970198;28;20053;-66
2021/12/16 02:49:40;;;;;;;43.58;30.08;;;5.40;84.10;;;3.31;99.55;97589.94;4987804;28;20038;-66
2021/12/16 02:52:06;;;;;;;41.38;28.50;;;5.40;83.80;;;3.30;99.21;97588.28;4969580;28;20070;-65
2021/12/16 02:54:32;;;;;;;40.30;28.98;;;5.40;83.70;;;3.28;98.79;97595.38;4970998;28;20034;-65
2021/12/16 02:56:58;;;;;;;40.03;28.88;;;5.40;83.50;;;3.26;99.12;97595.47;4961125;28;20475;-65
2021/12/16 02:59:27;;;;;;;40.38;28.85;;;5.40;83.70;;;3.25;99.51;97605.97;4987204;28;20065;-65
2021/12/16 03:01:56;;;;;;;37.83;27.02;;;5.30;83.80;;;3.26;98.95;97611.06;4986307;28;20058;-66
2021/12/16 03:04:23;;;;;;;39.70;27.20;;;5.40;83.90;;;3.26;99.42;97618.03;4955061;28;20034;-65
2021/12/16 03:06:51;;;;;;;41.33;28.35;;;5.40;84.00;;;3.24;99.16;97612.97;5004420;28;20108;-65
2021/12/16 03:09:21;;;;;;;38.25;27.83;;;5.40;84.00;;;3.27;99.64;97611.91;4971438;28;20039;-65
2021/12/16 03:14:58;;;;;;;39.90;27.60;;;5.40;83.90;;;3.26;99.17;97613.69;4961935;28;20546;-65
2021/12/16 03:17:33;;;;;;;40.03;27.60;;;5.40;83.80;;;3.27;99.74;97614.50;4947262;28;20040;-66
2021/12/16 03:20:07;;;;;;;37.83;27.10;;;5.40;83.90;;;3.25;99.28;97617.22;4951491;28;20038;-65
2021/12/16 03:25:18;;;;;;;39.55;27.48;;;5.40;83.90;;;3.24;99.59;97614.72;4975970;28;20066;-65
2021/12/16 03:30:55;;;;;;;37.90;26.80;;;5.40;84.10;;;3.26;99.42;97615.44;4976947;28;20041;-66
2021/12/16 03:35:52;;;;;;;39.00;26.00;;;5.40;84.00;;;3.23;99.49;97619.09;4974649;28;20046;-66
2021/12/16 03:38:18;;;;;;;37.58;25.13;;;5.40;83.90;;;3.24;99.24;97625.13;4975821;28;20038;-64
2021/12/16 03:40:43;;;;;;;35.47;24.38;;;5.30;83.50;;;3.24;99.38;97614.72;4974700;28;20026;-65
2021/12/16 03:43:13;;;;;;;32.92;22.95;;;5.30;83.70;;;3.24;99.41;97630.31;4954656;28;20392;-65
2021/12/16 03:48:47;;;;;;;33.95;23.65;;;5.30;84.00;;;3.22;99.54;97635.63;4991987;28;20165;-64
2021/12/16 03:51:30;;;;;;;36.45;23.25;;;5.30;83.90;;;3.20;99.48;97639.28;4991451;28;20034;-65
2021/12/16 03:54:05;;;;;;;34.92;22.05;;;5.30;84.00;;;3.19;99.58;97640.22;4956063;28;20049;-65
2021/12/16 03:56:30;;;;;;;30.35;20.10;;;5.30;83.90;;;3.17;99.37;97645.53;4970899;28;20023;-65
2021/12/16 03:58:56;;;;;;;29.88;20.15;;;5.30;83.70;;;3.16;98.99;97649.03;4957977;28;20314;-65
2021/12/16 04:01:24;;;;;;;27.27;18.85;;;5.30;83.60;;;3.16;98.83;97650.81;4973983;28;20049;-65
2021/12/16 04:03:50;;;;;;;25.38;18.23;;;5.10;83.60;;;3.15;98.86;97651.75;4957852;28;20212;-66
2021/12/16 04:06:18;;;;;;;25.75;17.58;;;5.20;83.50;;;3.13;99.02;97648.41;4973860;28;20549;-66
2021/12/16 04:08:44;;;;;;;25.95;17.65;;;5.20;83.40;;;3.12;98.57;97657.97;4973980;28;20324;-66
2021/12/16 04:11:19;;;;;;;26.63;19.02;;;5.20;83.50;;;3.13;98.65;97658.81;4990019;28;20416;-66
2021/12/16 04:14:03;;;;;;;25.63;17.50;;;5.20;83.40;;;3.12;98.71;97662.34;4989803;28;20030;-66
2021/12/16 04:16:46;;;;;;;25.40;17.30;;;5.20;83.40;;;3.11;98.71;97666.72;4962657;28;20058;-65
2021/12/16 04:19:16;;;;;;;27.02;18.30;;;5.20;83.60;;;3.08;98.75;97659.97;4973550;28;20033;-66
2021/12/16 04:21:53;;;;;;;25.83;17.40;;;5.20;83.80;;;3.10;98.76;97648.63;4972967;28;20459;-66
2021/12/16 04:24:19;;;;;;;25.40;17.30;;;5.20;83.80;;;3.08;98.94;97646.97;5005082;28;20037;-65
2021/12/16 04:26:46;;;;;;;25.45;17.63;;;5.20;83.80;;;3.11;99.27;97645.94;4989534;28;20113;-66
2021/12/16 04:29:11;;;;;;;23.52;16.58;;;5.20;83.70;;;3.10;98.90;97653.84;4956094;28;20410;-67
2021/12/16 04:31:37;;;;;;;28.25;18.45;;;5.20;83.60;;;3.08;99.29;97649.56;4973165;28;20043;-67
2021/12/16 04:34:03;;;;;;;26.83;18.17;;;5.20;83.70;;;3.08;98.96;97656.53;4985517;28;20414;-67
2021/12/16 04:36:29;;;;;;;30.77;19.95;;;5.10;83.70;;;3.08;98.99;97666.94;4973108;28;20407;-66
2021/12/16 04:38:55;;;;;;;29.30;19.17;;;5.10;83.70;;;3.05;99.34;97654.16;4956757;28;20026;-66
2021/12/16 04:41:21;;;;;;;32.70;21.08;;;5.10;84.30;;;3.03;99.01;97664.66;4972745;28;20533;-65
2021/12/16 04:43:50;;;;;;;31.58;21.30;;;5.00;84.40;;;3.02;99.24;97669.97;4986669;28;20023;-66
2021/12/16 04:46:20;;;;;;;36.22;22.13;;;5.00;84.40;;;3.00;99.10;97670.06;4972697;28;20081;-66
2021/12/16 04:48:49;;;;;;;33.35;21.63;;;5.00;84.50;;;2.96;99.07;97675.56;4941680;28;20034;-66
2021/12/16 04:51:15;;;;;;;33.08;22.38;;;5.00;84.60;;;2.94;99.39;97680.88;4968236;28;20100;-66
2021/12/16 04:53:41;;;;;;;34.47;22.83;;;4.90;84.60;;;2.93;99.29;97683.56;4988880;28;20023;-65
2021/12/16 04:56:07;;;;;;;34.08;21.23;;;5.00;84.70;;;2.92;99.69;97681.88;4988337;28;20030;-65
2021/12/16 04:58:33;;;;;;;31.45;20.40;;;5.00;84.30;;;2.90;99.32;97684.59;4957354;28;20520;-66
2021/12/16 05:00:59;;;;;;;34.72;21.75;;;5.00;84.20;;;2.90;98.81;97689.78;4972307;28;20058;-65
2021/12/16 05:03:25;;;;;;;34.55;21.15;;;5.00;84.40;;;2.89;99.28;97682.94;4980611;28;20109;-66
2021/12/16 05:05:51;;;;;;;43.75;27.30;;;5.00;84.30;;;2.90;99.42;97694.16;4971647;28;20354;-66
2021/12/16 05:08:17;;;;;;;164.70;102.35;;;5.00;84.40;;;2.90;99.71;97689.78;4953813;28;20038;-66
2021/12/16 05:10:43;;;;;;;47.03;29.55;;;5.10;84.60;;;2.92;99.81;97695.72;4988909;28;20069;-65
2021/12/16 05:13:09;;;;;;;36.50;23.65;;;5.10;84.40;;;2.92;100.00;97698.31;4956215;28;20050;-66
2021/12/16 05:15:38;;;;;;;35.97;21.30;;;5.10;84.40;;;2.94;100.00;97704.28;4988505;28;20042;-65
2021/12/16 05:18:07;;;;;;;34.97;22.15;;;5.10;84.40;;;2.95;100.00;97700.75;4956868;28;20062;-65
2021/12/16 05:20:40;;;;;;;34.83;21.48;;;5.10;84.40;;;2.96;99.84;97699.81;4956588;28;20094;-65
2021/12/16 05:26:11;;;;;;;34.40;20.75;;;5.10;84.10;;;2.97;100.00;97701.47;4974774;28;20386;-65
2021/12/16 05:28:37;;;;;;;33.67;21.52;;;5.10;84.10;;;2.98;99.95;97707.50;4988731;28;20446;-65
2021/12/16 05:31:03;;;;;;;33.42;21.85;;;5.10;84.20;;;2.96;99.80;97710.19;4939899;28;20151;-65
2021/12/16 05:33:29;;;;;;;57.10;35.67;;;5.10;84.20;;;3.02;100.00;97708.94;4968851;28;20031;-65
2021/12/16 05:35:55;;;;;;;43.92;28.55;;;5.20;84.40;;;3.04;100.00;97714.88;4970848;28;20475;-67
2021/12/16 05:38:22;;;;;;;35.03;23.70;;;5.20;84.20;;;3.05;100.00;97713.94;4940527;28;20034;-67
2021/12/16 05:40:47;;;;;;;32.92;21.33;;;5.20;83.90;;;3.06;99.77;97719.03;4940137;28;20026;-67
2021/12/16 05:43:16;;;;;;;33.42;22.55;;;5.20;83.30;;;3.06;99.50;97721.63;4956002;28;20037;-67
2021/12/16 05:45:43;;;;;;;31.83;21.27;;;5.20;83.60;;;3.07;99.06;97723.31;4956228;28;20081;-66
2021/12/16 05:48:10;;;;;;;31.67;21.10;;;5.20;83.10;;;3.07;99.16;97727.66;4971356;28;20518;-66
2021/12/16 05:50:41;;;;;;;28.67;20.55;;;5.20;83.10;;;3.07;98.52;97722.47;4956362;28;20391;-66
2021/12/16 05:53:06;;;;;;;28.45;20.42;;;5.20;82.80;;;3.06;98.67;97731.22;5004006;28;20034;-66
2021/12/16 05:55:32;;;;;;;29.23;20.30;;;5.10;82.90;;;3.06;98.67;97729.44;4946946;28;20038;-67
2021/12/16 05:58:00;;;;;;;26.02;18.48;;;5.10;82.90;;;3.03;97.86;97731.41;4967518;28;20031;-66
2021/12/16 06:00:39;;;;;;;25.80;18.00;;;5.10;82.50;;;3.02;97.98;97733.19;4972455;28;20027;-65
2021/12/16 06:03:05;;;;;;;26.35;17.95;;;5.10;82.60;;;3.01;98.16;97731.50;5002435;28;20387;-63
2021/12/16 06:05:31;;;;;;;27.52;19.13;;;5.10;83.00;;;3.02;98.50;97740.97;4952685;28;20041;-68
2021/12/16 06:07:57;;;;;;;29.02;19.63;;;5.10;83.40;;;2.98;98.03;97736.91;4984968;28;20475;-65
2021/12/16 06:11:14;;;;;;;32.20;20.83;;;5.10;82.90;;;2.98;98.34;97734.31;4951472;28;20026;-63
2021/12/16 06:13:09;;;;;;;27.25;17.88;;;5.10;83.10;;;2.95;98.17;97736.28;4975974;28;20268;-67
2021/12/16 06:26:47;;;;;;;30.63;19.10;;;4.60;84.20;;;2.68;98.20;97736.31;4973146;28;20092;-65
2021/12/16 06:29:12;;;;;;;31.92;19.77;;;4.60;84.70;;;2.61;98.79;97729.88;4969398;28;20057;-65
2021/12/16 06:31:38;;;;;;;25.75;17.17;;;4.50;85.30;;;2.61;99.09;97735.06;4988149;28;20221;-65
2021/12/16 06:34:04;;;;;;;26.05;17.08;;;4.50;85.20;;;2.60;99.31;97738.59;4981236;28;20457;-64
2021/12/16 06:36:30;;;;;;;25.95;16.75;;;4.50;85.10;;;2.57;99.12;97729.22;4989021;28;20054;-66
2021/12/16 06:38:55;;;;;;;27.60;17.60;;;4.60;85.40;;;2.60;98.77;97743.78;4971002;28;20478;-65
2021/12/16 06:41:21;;;;;;;29.40;18.08;;;4.50;85.20;;;2.60;99.35;97736.81;5003752;28;20521;-64
2021/12/16 06:43:50;;;;;;;43.78;27.17;;;4.60;85.30;;;2.66;100.00;97748.56;4979687;28;20030;-66
2021/12/16 06:46:19;;;;;;;42.80;26.13;;;4.80;86.50;;;2.74;100.00;97749.75;4986382;28;20513;-67
2021/12/16 06:48:49;;;;;;;50.38;32.47;;;4.90;86.40;;;2.83;100.00;97745.72;4968590;28;20042;-68
2021/12/16 06:51:22;;;;;;;46.95;29.52;;;5.10;86.00;;;2.88;100.00;97748.84;4970511;28;20050;-67
2021/12/16 06:54:02;;;;;;;44.03;28.30;;;5.10;85.10;;;2.94;100.00;97745.00;4971210;28;20063;-67
2021/12/16 06:56:36;;;;;;;29.67;19.00;;;5.10;84.50;;;2.97;99.97;97748.25;4939546;28;20043;-65
2021/12/16 06:59:07;;;;;;;27.10;18.45;;;5.10;83.80;;;3.00;99.95;97749.81;4970036;28;20448;-64
2021/12/16 07:01:39;;;;;;;;;;;5.10;83.80;;;3.01;99.18;97749.72;4986474;28;20030;-68
2021/12/16 07:04:11;;;;;;;26.75;17.17;;;5.10;83.30;;;3.02;99.39;97751.38;4985461;28;19924;-68
2021/12/16 07:06:39;;;;;;;25.45;17.13;;;5.10;83.40;;;3.06;99.13;97757.19;4977902;28;20027;-68
2021/12/16 07:09:13;;;;;;;27.25;18.25;;;5.20;83.50;;;3.06;98.88;97763.22;4966165;28;20478;-66
2021/12/16 07:11:52;;;;;;;25.38;17.88;;;5.10;83.20;;;3.11;98.85;97764.69;4970428;28;20034;-66
2021/12/16 07:14:19;;;;;;;25.65;16.83;;;5.20;83.30;;;3.14;98.95;97767.09;4954595;28;20049;-66
2021/12/16 07:16:48;;;;;;;25.42;16.50;;;5.30;82.80;;;3.16;99.27;97773.00;4953379;28;20165;-66
2021/12/16 07:19:13;;;;;;;25.73;17.30;;;5.30;83.60;;;3.19;99.31;97778.88;4952777;28;20034;-72
2021/12/16 07:21:40;;;;;;;25.08;17.33;;;5.40;84.20;;;3.23;99.66;97779.50;4949353;28;20042;-66
2021/12/16 07:24:11;;;;;;;26.35;17.77;;;5.30;84.20;;;3.27;99.52;97783.53;4963529;28;20649;-65
2021/12/16 07:26:37;;;;;;;;;;;5.50;83.90;;;3.30;100.00;97785.94;4982032;28;20100;-64
2021/12/16 07:29:03;;;;;;;25.90;15.43;;;5.60;84.40;;;3.34;99.66;97787.41;4983782;28;19917;-62
2021/12/16 07:31:30;;;;;;;24.95;16.80;;;5.60;84.00;;;3.37;100.00;97793.22;4968889;28;20421;-63
2021/12/16 07:33:56;;;;;;;24.98;17.48;;;5.70;83.90;;;3.43;99.74;97791.16;4984790;28;20031;-62
2021/12/16 07:36:22;;;;;;;25.95;18.00;;;5.60;82.70;;;3.41;99.18;97788.66;4970297;28;20085;-63
2021/12/16 07:38:48;;;;;;;27.30;17.85;;;5.50;82.30;;;3.39;98.56;97787.91;4970207;28;20027;-62
2021/12/16 07:41:16;;;;;;;27.75;18.23;;;5.50;82.20;;;3.35;98.34;97784.69;4985799;28;20046;-63
2021/12/16 07:46:27;;;;;;;26.58;17.92;;;5.50;82.20;;;3.38;97.79;97791.44;4973021;28;20364;-67
2021/12/16 07:48:53;;;;;;;24.67;17.83;;;5.60;82.20;;;3.38;98.38;97796.66;4984610;28;20037;-65
2021/12/16 07:51:19;;;;;;;25.48;17.60;;;5.50;82.10;;;3.38;98.13;97799.25;4971935;28;20483;-65
2021/12/16 07:53:44;;;;;;;23.23;17.27;;;5.50;82.00;;;3.38;98.03;97799.25;4986024;28;20105;-66
2021/12/16 07:56:10;;;;;;;24.80;17.27;;;5.60;82.10;;;3.37;97.69;97801.03;4968016;28;20118;-66
2021/12/16 07:58:36;;;;;;;24.17;15.93;;;5.60;82.10;;;3.39;97.63;97800.91;4988036;28;20053;-63
2021/12/16 08:01:02;;;;;;;22.75;16.48;;;5.60;81.70;;;3.41;97.55;97799.06;4973462;28;20038;-63
2021/12/16 08:03:34;;;;;;;23.48;16.75;;;5.60;81.40;;;3.41;97.68;97796.47;4983708;28;20031;-67
2021/12/16 08:06:01;;;;;;;23.30;17.23;;;5.60;81.30;;;3.44;97.22;97804.06;4973467;28;20436;-67
2021/12/16 08:08:26;;;;;;;22.70;16.83;;;5.70;81.40;;;3.47;97.36;97801.25;4957355;28;20491;-64
2021/12/16 08:10:53;;;;;;;22.48;17.38;;;5.80;81.20;;;3.52;97.67;97814.78;4973105;28;20041;-64
2021/12/16 08:13:18;;;;;;;22.75;16.05;;;5.90;81.00;;;3.57;97.22;97820.50;4989050;28;20061;-65
2021/12/16 08:15:44;;;;;;;22.65;16.58;;;5.90;80.90;;;3.62;97.18;97818.44;4989010;28;20510;-64
2021/12/16 08:18:10;;;;;;;22.40;16.50;;;6.00;80.80;;;3.67;96.67;97813.75;4989013;28;20038;-64
2021/12/16 08:20:36;;;;;;;24.10;18.83;;;6.10;80.20;;;3.72;96.70;97817.81;4989396;28;20026;-64
2021/12/16 08:23:02;;;;;;;26.55;18.15;;;6.10;79.90;;;3.77;96.24;97813.13;4988927;28;20563;-64
2021/12/16 08:25:29;;;;;;;24.35;17.40;;;6.10;80.10;;;3.78;96.56;97820.00;4989596;28;20027;-67
2021/12/16 08:27:59;;;;;;;24.58;19.25;;;6.10;79.90;;;3.84;95.95;97816.97;4951773;28;20061;-63
2021/12/16 08:30:27;;;;;;;25.08;17.67;;;6.10;80.10;;;3.87;96.21;97815.00;4972616;28;20054;-64
2021/12/16 08:32:53;;;;;;;23.08;16.85;;;6.20;80.30;;;3.91;95.97;97813.03;4971368;28;20034;-64
2021/12/16 08:35:19;;;;;;;25.30;18.70;;;6.20;79.90;;;3.96;95.98;97826.53;4973239;28;20042;-64
2021/12/16 08:37:45;;;;;;;23.80;17.27;;;6.30;79.70;;;3.97;95.58;97828.22;4989253;28;20097;-64
2021/12/16 08:40:15;;;;;;;23.65;17.42;;;6.20;79.50;;;3.97;95.61;97836.03;4956026;28;20038;-64
2021/12/16 08:42:41;;;;;;;24.67;18.90;;;6.20;79.70;;;3.97;95.61;97849.03;4937813;28;20035;-66
2021/12/16 08:45:11;;;;;;;25.23;18.75;;;6.10;80.00;;;3.99;94.84;97841.97;4951603;28;20045;-67
2021/12/16 08:47:36;;;;;;;24.13;18.80;;;6.20;80.20;;;3.99;95.44;97841.97;4971696;28;20034;-66
2021/12/16 08:50:03;;;;;;;24.52;17.10;;;6.20;80.10;;;3.97;95.50;97836.84;4970099;28;20422;-65
2021/12/16 08:52:29;;;;;;;28.08;18.83;;;6.10;80.20;;;4.00;95.39;97838.41;4954660;28;20165;-65
2021/12/16 08:54:55;;;;;;;27.33;19.23;;;6.20;80.20;;;4.00;95.60;97843.63;4970470;28;20149;-64
2021/12/16 08:57:21;;;;;;;26.33;18.90;;;6.20;80.50;;;4.01;95.48;97845.28;4970743;28;20034;-64
2021/12/16 08:59:48;;;;;;;24.90;18.92;;;6.10;80.70;;;4.02;95.72;97841.75;4990158;28;20391;-64
2021/12/16 09:02:14;;;;;;;25.25;17.65;;;6.10;80.40;;;4.05;95.35;97846.72;4986228;28;20092;-65
2021/12/16 09:04:40;;;;;;;24.13;17.35;;;6.20;80.20;;;4.08;95.24;97856.13;4956124;28;20030;-64
2021/12/16 09:07:08;;;;;;;26.42;17.70;;;6.30;80.20;;;4.11;95.11;97855.91;4972272;28;20049;-66
2021/12/16 09:09:35;;;;;;;25.98;18.48;;;6.30;79.90;;;4.09;95.22;97863.00;4931222;28;20109;-65
2021/12/16 09:12:10;;;;;;;24.90;18.83;;;6.20;80.30;;;4.08;94.73;97862.19;4970360;28;20034;-63
2021/12/16 09:14:36;;;;;;;25.13;18.98;;;6.20;80.60;;;4.09;95.53;97858.63;4975621;28;20027;-66
2021/12/16 09:17:04;;;;;;;26.90;20.38;;;6.20;80.40;;;4.10;94.79;97859.47;4971026;28;20133;-66
2021/12/16 09:19:29;;;;;;;25.20;17.98;;;6.20;80.20;;;4.10;94.88;97870.72;4983710;28;20030;-63
2021/12/16 09:21:55;;;;;;;23.58;18.40;;;6.20;80.50;;;4.13;95.58;97874.88;4982003;28;20602;-65
2021/12/16 09:24:21;;;;;;;22.85;16.83;;;6.20;80.30;;;4.15;94.73;97868.63;4967355;28;20522;-65
2021/12/16 09:26:47;;;;;;;24.40;17.50;;;6.30;79.80;;;4.14;95.12;97866.13;4971974;28;20121;-64
2021/12/16 09:29:12;;;;;;;20.90;15.68;;;6.30;80.30;;;4.19;94.60;97869.22;4988355;28;20038;-65
2021/12/16 09:31:38;;;;;;;19.02;14.65;;;6.40;79.40;;;4.22;94.95;97859.44;4987906;28;20134;-64
2021/12/16 09:34:07;;;;;;;20.13;14.13;;;6.40;79.60;;;4.24;94.83;97856.72;4970716;28;20034;-66
2021/12/16 09:36:37;;;;;;;19.95;14.50;;;6.50;79.50;;;4.28;93.91;97863.38;4965854;28;20019;-66
2021/12/16 09:39:11;;;;;;;19.60;14.65;;;6.50;79.30;;;4.37;93.49;97872.34;4971779;28;20034;-63
2021/12/16 09:41:37;;;;;;;18.23;15.13;;;6.70;79.00;;;4.45;94.50;97870.03;4972100;28;20030;-63
2021/12/16 09:44:03;;;;;;;18.85;15.50;;;6.90;78.50;;;4.56;94.00;97872.72;4970293;28;20410;-63
2021/12/16 09:46:29;;;;;;;17.90;14.00;;;7.10;77.80;;;4.67;94.03;97869.34;4988158;28;20069;-63
2021/12/16 09:48:56;;;;;;;18.45;14.70;;;7.30;76.90;;;4.79;93.58;97869.31;4987435;28;20475;-62
2021/12/16 09:51:29;;;;;;;17.25;13.07;;;7.50;76.80;;;4.91;92.61;97863.22;4972066;28;20031;-63
2021/12/16 09:53:59;;;;;;;15.40;13.43;;;7.70;76.10;;;5.05;92.10;97877.03;4954704;28;20052;-63
2021/12/16 09:56:26;;;;;;;15.35;13.13;;;7.80;74.70;;;5.14;91.71;97876.38;4984801;28;20113;-64
2021/12/16 09:58:52;;;;;;;16.52;14.20;;;7.90;74.10;;;5.21;91.73;97869.78;4955384;28;20494;-63
2021/12/16 10:01:19;;;;;;;15.65;13.77;;;7.80;73.90;;;5.29;91.46;97877.03;4985179;28;20053;-63
2021/12/16 10:03:46;;;;;;;13.65;12.07;;;8.20;73.30;;;5.41;90.75;97861.28;4935559;28;20602;-63
2021/12/16 10:06:13;;;;;;;12.82;10.25;;;8.40;72.80;;;5.52;90.21;97863.94;4971927;28;20046;-64
2021/12/16 10:08:40;;;;;;;11.25;9.52;;;8.60;72.20;;;5.65;90.99;97863.00;4968951;28;20129;-64
2021/12/16 10:11:06;;;;;;;11.02;9.68;;;8.60;72.20;;;5.73;89.47;97860.69;5001375;28;20092;-65
2021/12/16 10:13:42;;;;;;;11.40;9.63;;;8.50;72.40;;;5.77;89.58;97857.72;5003827;28;20038;-64
2021/12/16 10:18:35;;;;;;;13.88;11.13;;;8.30;73.60;;;5.79;88.82;97855.81;4987148;28;20088;-63
2021/12/16 10:21:06;;;;;;;12.45;10.60;;;8.10;73.90;;;5.76;87.77;97856.06;5002779;28;20031;-69
2021/12/16 10:23:32;;;;;;;14.45;12.05;;;8.10;73.80;;;5.74;88.36;97847.50;4986641;28;20027;-70
2021/12/16 10:26:07;;;;;;;12.98;11.20;;;8.00;74.10;;;5.72;87.91;97853.81;4986126;28;20066;-65
2021/12/16 10:28:34;;;;;;;13.48;11.50;;;8.10;74.00;;;5.71;88.05;97852.97;5003341;28;20034;-69
2021/12/16 10:31:09;;;;;;;13.45;11.07;;;8.20;73.60;;;5.80;89.13;97849.66;4971024;28;20023;-62
2021/12/16 10:33:43;;;;;;;12.07;10.82;;;8.70;72.50;;;5.98;88.76;97855.28;4985271;28;20366;-62
2021/12/16 10:36:23;;;;;;;12.68;10.75;;;9.70;69.70;;;6.24;86.76;97850.66;4986732;28;20502;-68
2021/12/16 10:39:08;;;;;;;12.60;10.13;;;9.90;67.30;;;6.39;86.21;97838.19;4988243;28;20502;-62
2021/12/16 10:41:43;;;;;;;12.25;10.20;;;9.60;68.80;;;6.43;86.17;97839.63;4988200;28;20042;-62
2021/12/16 10:44:17;;;;;;;11.40;10.20;;;9.50;68.20;;;6.52;87.13;97836.25;4954218;28;20092;-63
2021/12/16 10:47:12;;;;;;;13.07;11.32;;;9.40;69.40;;;6.53;83.47;97830.09;4970849;28;20395;-64
2021/12/16 10:49:44;;;;;;;12.65;11.07;;;9.10;68.90;;;6.49;84.91;97828.66;4962699;28;20089;-67
2021/12/16 10:52:27;;;;;;;13.20;10.82;;;8.90;69.50;;;6.46;84.51;97831.53;4984198;28;20053;-67
2021/12/16 10:54:53;;;;;;;11.85;10.55;;;8.80;70.20;;;6.43;85.38;97831.78;4986977;28;20030;-65
2021/12/16 10:57:25;;;;;;;11.43;10.07;;;8.70;70.40;;;6.39;84.23;97836.41;4986668;28;20454;-65
2021/12/16 11:00:10;;;;;;;12.90;10.02;;;8.60;71.20;;;6.33;84.30;97828.19;4986983;28;20221;-66
2021/12/16 11:02:38;;;;;;;9.90;8.38;;;8.50;72.00;;;6.23;84.00;97828.09;4972683;28;20108;-66
2021/12/16 11:05:15;;;;;;;11.10;9.60;;;8.20;71.00;;;6.14;83.40;97828.81;4986473;28;20434;-65
2021/12/16 11:07:43;;;;;;;11.00;9.50;;;8.20;71.80;;;6.08;84.77;97832.72;4977021;28;20401;-66
2021/12/16 11:10:18;;;;;;;12.30;10.40;;;8.10;72.70;;;6.04;84.24;97833.91;4969211;28;21919;-63
2021/12/16 11:13:04;;;;;;;13.52;11.13;;;8.20;72.90;;;6.00;84.66;97835.09;4963503;28;20089;-65
2021/12/16 11:15:47;;;;;;;12.63;10.07;;;8.30;72.30;;;6.01;84.73;97839.38;4970296;28;20096;-65
2021/12/16 11:18:20;;;;;;;13.13;11.18;;;8.30;72.50;;;5.96;85.10;97844.13;4986102;28;20505;-65
2021/12/16 11:20:55;;;;;;;13.27;11.75;;;8.10;73.30;;;5.93;85.19;97833.09;4971872;28;20430;-65
2021/12/16 11:23:28;;;;;;;13.63;11.57;;;8.10;73.30;;;5.85;84.88;97833.63;4969547;28;20030;-65
2021/12/16 11:25:55;;;;;;;13.65;12.18;;;7.80;74.00;;;5.78;86.00;97827.22;4985103;28;20454;-64
2021/12/16 11:28:32;;;;;;;12.45;10.60;;;7.70;74.50;;;5.71;85.25;97823.41;4986025;28;20132;-65
2021/12/16 11:31:14;;;;;;;11.45;10.20;;;7.60;74.90;;;5.64;85.65;97822.19;4987142;28;20034;-64
2021/12/16 11:33:51;;;;;;;12.32;10.48;;;7.60;75.20;;;5.59;86.06;97824.31;4960190;28;20057;-64
2021/12/16 11:36:21;;;;;;;11.82;10.27;;;7.60;75.00;;;5.53;85.76;97818.63;4989300;28;20035;-64
2021/12/16 11:39:12;;;;;;;11.73;10.10;;;7.50;75.00;;;5.48;86.57;97815.53;4989640;28;20030;-64
2021/12/16 11:41:57;;;;;;;10.73;9.25;;;7.50;75.20;;;5.40;85.31;97822.25;4984927;28;20064;-64
2021/12/16 11:44:32;;;;;;;10.90;9.32;;;7.20;74.60;;;5.36;85.62;97824.28;4973253;28;20061;-66
2021/12/16 11:47:05;;;;;;;11.80;9.50;;;7.30;75.10;;;5.30;85.62;97827.34;4990135;28;20034;-65
2021/12/16 11:49:42;;;;;;;11.73;10.02;;;7.10;75.50;;;5.24;86.07;97819.97;5005574;28;20038;-66
2021/12/16 11:52:21;;;;;;;11.00;9.43;;;7.10;75.40;;;5.21;86.42;97822.81;4972654;28;20042;-64
2021/12/16 11:54:56;;;;;;;11.25;8.68;;;7.20;75.80;;;5.17;86.17;97822.19;4990360;28;20055;-68
2021/12/16 11:57:25;;;;;;;11.23;8.80;;;7.10;75.40;;;5.13;86.43;97825.13;4970743;28;20038;-65
2021/12/16 12:00:22;;;;;;;11.05;8.23;;;7.10;75.50;;;5.09;86.58;97834.97;4973266;28;20046;-70
2021/12/16 12:02:50;;;;;;;11.02;9.35;;;7.10;76.00;;;5.06;87.29;97835.19;4972877;28;20038;-64
2021/12/16 12:05:46;;;;;;;10.32;8.75;;;7.10;76.60;;;5.08;87.04;97843.75;5005849;28;20548;-65
2021/12/16 12:08:23;;;;;;;9.95;7.93;;;7.10;76.30;;;5.07;86.97;97841.25;4988508;28;20125;-66
2021/12/16 12:11:18;;;;;;;10.43;8.55;;;7.10;76.10;;;5.09;87.66;97839.34;4991233;28;20030;-67
2021/12/16 12:13:50;;;;;;;10.40;7.68;;;7.10;76.10;;;5.06;87.96;97839.59;4988363;28;20129;-64
2021/12/16 12:16:31;;;;;;;10.70;8.13;;;7.10;76.50;;;5.07;88.02;97838.63;5004146;28;20108;-65
2021/12/16 12:18:59;;;;;;;11.43;8.18;;;7.20;76.40;;;5.06;88.37;97829.97;4973569;28;20038;-65
2021/12/16 12:21:45;;;;;;;10.82;8.40;;;7.20;76.40;;;5.09;88.10;97839.34;4989408;28;20112;-67
2021/12/16 12:24:31;;;;;;;10.02;8.68;;;7.20;76.40;;;5.09;88.00;97821.09;5004460;28;20034;-67
2021/12/16 12:27:11;;;;;;;9.63;6.88;;;7.20;76.30;;;5.10;86.88;97835.81;4989019;28;20042;-65
2021/12/16 12:29:44;;;;;;;12.27;8.02;;;7.20;75.80;;;5.04;87.27;97825.81;4989293;28;20050;-64
2021/12/16 12:32:23;;;;;;;9.48;8.07;;;7.00;76.60;;;5.01;87.88;97829.50;4988002;28;20085;-64
2021/12/16 12:35:08;;;;;;;10.27;8.50;;;7.00;76.60;;;5.02;87.59;97825.94;4974536;28;20104;-65
2021/12/16 12:37:37;;;;;;;10.52;8.63;;;7.00;76.80;;;5.01;88.14;97826.06;4985623;28;20034;-64
2021/12/16 12:40:17;;;;;;;11.55;8.45;;;7.00;76.70;;;5.02;88.01;97817.28;4988274;28;20061;-66
2021/12/16 12:42:44;;;;;;;10.82;9.15;;;7.00;77.10;;;5.01;88.67;97815.63;4989355;28;20405;-67
2021/12/16 12:45:12;;;;;;;10.45;8.93;;;7.10;77.10;;;5.05;88.80;97815.28;4969716;28;20039;-64
2021/12/16 12:47:41;;;;;;;10.65;9.05;;;7.10;77.20;;;5.07;89.34;97817.78;4990958;28;20118;-64
2021/12/16 12:50:11;;;;;;;11.00;9.50;;;7.20;78.00;;;5.11;88.59;97812.22;4986872;28;20040;-64
2021/12/16 12:52:37;;;;;;;12.02;9.32;;;7.20;77.70;;;5.10;89.03;97815.75;5001988;28;20055;-67
2021/12/16 12:55:23;;;;;;;11.23;9.48;;;7.20;78.10;;;5.13;89.59;97820.75;5002453;28;20127;-63
2021/12/16 12:57:49;;;;;;;11.75;8.90;;;7.30;78.00;;;5.14;89.08;97811.97;5004390;28;20034;-65
2021/12/16 13:00:51;;;;;;;12.85;10.00;;;7.30;77.60;;;5.17;88.98;97827.41;4986650;28;20470;-66